createdAt,value
2018-12-13T00:01:04.943Z,13.20
2018-12-13T00:03:35.225Z,11.22
2018-12-13T00:06:04.451Z,11.38
2018-12-13T00:08:35.044Z,15.50
2018-12-13T00:11:04.467Z,14.20
2018-12-13T00:13:35.241Z,11.73
2018-12-13T00:16:04.454Z,13.43
2018-12-13T00:18:35.980Z,12.47
2018-12-13T00:21:05.659Z,12.90
2018-12-13T00:23:37.094Z,11.63
2018-12-13T00:26:06.687Z,11.15
2018-12-13T00:28:37.825Z,9.85
2018-12-13T00:31:07.766Z,9.93
2018-12-13T00:33:36.950Z,9.63
2018-12-13T00:36:06.237Z,11.68
2018-12-13T00:38:37.182Z,10.08
2018-12-13T00:41:06.429Z,11.70
2018-12-13T00:43:36.485Z,10.85
2018-12-13T00:46:05.680Z,15.90
2018-12-13T00:48:35.667Z,12.07
2018-12-13T00:51:05.035Z,14.15
2018-12-13T00:53:34.605Z,12.45
2018-12-13T00:56:03.831Z,16.05
2018-12-13T00:58:33.279Z,13.68
2018-12-13T01:01:02.642Z,12.60
2018-12-13T01:03:32.590Z,12.95
2018-12-13T01:06:03.130Z,12.90
2018-12-13T01:08:32.355Z,15.40
2018-12-13T01:11:01.661Z,12.95
2018-12-13T01:13:30.828Z,12.13
2018-12-13T01:16:00.027Z,11.03
2018-12-13T01:18:29.390Z,11.85
2018-12-13T01:20:59.265Z,10.48
2018-12-13T01:23:29.132Z,9.95
2018-12-13T01:25:59.065Z,13.68
2018-12-13T01:28:28.343Z,14.50
2018-12-13T01:30:57.833Z,13.95
2018-12-13T01:33:27.015Z,16.77
2018-12-13T01:35:56.162Z,14.63
2018-12-13T01:38:25.374Z,16.52
2018-12-13T01:40:56.705Z,12.13
2018-12-13T01:43:26.132Z,12.47
2018-12-13T01:45:55.334Z,12.37
2018-12-13T01:48:24.512Z,14.73
2018-12-13T01:50:55.902Z,15.43
2018-12-13T01:53:25.282Z,13.95
2018-12-13T01:55:55.918Z,13.08
2018-12-13T01:58:25.857Z,16.27
2018-12-13T02:00:55.119Z,11.90
2018-12-13T02:03:24.398Z,16.27
2018-12-13T02:05:53.931Z,15.08
2018-12-13T02:08:23.144Z,12.73
2018-12-13T02:10:52.487Z,14.75
2018-12-13T02:13:21.714Z,13.00
2018-12-13T02:15:50.877Z,14.18
2018-12-13T02:18:20.779Z,13.10
2018-12-13T02:20:50.128Z,13.38
2018-12-13T02:23:19.631Z,12.47
2018-12-13T02:25:49.276Z,12.15
2018-12-13T02:28:18.512Z,17.48
2018-12-13T02:30:50.594Z,13.95
2018-12-13T02:33:19.963Z,14.58
2018-12-13T02:35:49.162Z,15.03
2018-12-13T02:38:18.363Z,17.12
2018-12-13T02:40:49.597Z,14.55
2018-12-13T02:43:18.790Z,18.73
2018-12-13T02:45:47.967Z,16.15
2018-12-13T02:48:17.121Z,16.20
2018-12-13T02:50:48.445Z,15.00
2018-12-13T02:53:17.711Z,17.32
2018-12-13T02:55:46.977Z,17.95
2018-12-13T02:58:16.264Z,16.00
2018-12-13T03:00:46.470Z,15.08
2018-12-13T03:03:15.682Z,18.80
2018-12-13T03:05:45.946Z,13.30
2018-12-13T03:08:15.246Z,17.02
2018-12-13T03:10:45.302Z,16.52
2018-12-13T03:13:14.501Z,19.17
2018-12-13T03:15:45.782Z,13.68
2018-12-13T03:18:15.250Z,14.10
2018-12-13T03:20:46.700Z,16.90
2018-12-13T03:23:15.883Z,13.22
2018-12-13T03:25:46.344Z,16.05
2018-12-13T03:28:15.583Z,13.65
2018-12-13T03:30:48.154Z,13.55
2018-12-13T03:33:17.384Z,13.58
2018-12-13T03:35:48.118Z,16.17
2018-12-13T03:38:17.319Z,13.62
2018-12-13T03:40:49.039Z,14.38
2018-12-13T03:43:18.226Z,13.93
2018-12-13T03:45:48.688Z,16.55
2018-12-13T03:48:17.883Z,12.25
2018-12-13T03:50:48.313Z,14.90
2018-12-13T03:53:17.474Z,13.65
2018-12-13T03:55:47.399Z,15.98
2018-12-13T03:58:16.581Z,13.98
2018-12-13T04:00:47.814Z,20.12
2018-12-13T04:03:17.877Z,13.48
2018-12-13T04:05:49.190Z,14.20
2018-12-13T04:08:18.415Z,18.02
2018-12-13T04:10:48.497Z,14.28
2018-12-13T04:13:17.696Z,11.35
2018-12-13T04:15:47.854Z,19.80
2018-12-13T04:18:17.048Z,14.05
2018-12-13T04:20:48.455Z,16.85
2018-12-13T04:23:18.353Z,15.18
2018-12-13T04:25:48.388Z,16.23
2018-12-13T04:28:17.581Z,11.95
2018-12-13T04:30:51.790Z,18.05
2018-12-13T04:33:21.181Z,17.75
2018-12-13T04:35:50.331Z,17.62
2018-12-13T04:38:19.545Z,13.55
2018-12-13T04:40:50.854Z,15.25
2018-12-13T04:43:20.057Z,17.50
2018-12-13T04:45:50.251Z,16.32
2018-12-13T04:48:19.428Z,16.42
2018-12-13T04:50:49.374Z,15.63
2018-12-13T04:53:19.105Z,13.03
2018-12-13T04:55:48.970Z,18.65
2018-12-13T04:58:18.257Z,14.68
2018-12-13T05:00:49.206Z,14.00
2018-12-13T05:03:18.369Z,15.93
2018-12-13T05:05:47.667Z,13.95
2018-12-13T05:08:17.247Z,14.15
2018-12-13T05:10:53.424Z,16.80
2018-12-13T05:13:23.344Z,13.15
2018-12-13T05:15:52.593Z,15.88
2018-12-13T05:18:23.340Z,15.00
2018-12-13T05:20:54.174Z,15.18
2018-12-13T05:23:24.821Z,15.32
2018-12-13T05:25:54.845Z,13.93
2018-12-13T05:28:24.341Z,17.75
2018-12-13T05:30:53.949Z,12.37
2018-12-13T05:33:23.635Z,18.15
2018-12-13T05:35:54.163Z,14.18
2018-12-13T05:38:24.015Z,22.87
2018-12-13T05:41:00.644Z,16.48
2018-12-13T05:43:29.959Z,15.58
2018-12-13T05:45:59.357Z,15.50
2018-12-13T05:48:38.482Z,16.80
2018-12-13T05:51:13.230Z,17.95
2018-12-13T05:53:57.270Z,20.30
2018-12-13T05:56:26.492Z,21.68
2018-12-13T05:58:55.728Z,18.50
2018-12-13T06:01:25.003Z,17.87
2018-12-13T06:03:54.249Z,13.45
2018-12-13T06:06:23.463Z,17.85
2018-12-13T06:08:53.466Z,14.05
2018-12-13T06:11:23.140Z,16.52
2018-12-13T06:13:54.327Z,19.37
2018-12-13T06:16:23.514Z,13.65
2018-12-13T06:18:53.402Z,16.00
2018-12-13T06:21:22.674Z,17.50
2018-12-13T06:23:53.714Z,17.90
2018-12-13T06:26:23.325Z,13.80
2018-12-13T06:28:53.477Z,17.57
2018-12-13T06:31:33.422Z,18.95
2018-12-13T06:34:02.858Z,15.93
2018-12-13T06:36:32.069Z,15.75
2018-12-13T06:39:01.289Z,18.37
2018-12-13T06:41:31.842Z,18.65
2018-12-13T06:44:01.055Z,15.63
2018-12-13T06:46:31.184Z,16.95
2018-12-13T06:49:01.373Z,18.20
2018-12-13T06:51:30.808Z,15.75
2018-12-13T06:54:00.000Z,16.52
2018-12-13T06:56:29.419Z,16.77
2018-12-13T06:58:58.630Z,15.20
2018-12-13T07:01:27.896Z,15.72
2018-12-13T07:03:58.344Z,19.52
2018-12-13T07:06:28.870Z,19.15
2018-12-13T07:08:57.781Z,17.75
2018-12-13T07:11:27.023Z,13.58
2018-12-13T07:13:57.494Z,16.17
2018-12-13T07:16:28.036Z,15.93
2018-12-13T07:18:58.103Z,14.10
2018-12-13T07:21:27.488Z,19.02
2018-12-13T07:23:57.829Z,18.50
2018-12-13T07:26:27.128Z,15.18
2018-12-13T07:28:58.046Z,15.32
2018-12-13T07:31:27.580Z,16.20
2018-12-13T07:33:57.804Z,16.80
2018-12-13T07:36:27.396Z,20.88
2018-12-13T07:38:58.444Z,16.82
2018-12-13T07:41:28.030Z,14.07
2018-12-13T07:43:58.010Z,12.75
2018-12-13T07:46:27.197Z,19.57
2018-12-13T07:48:57.786Z,16.48
2018-12-13T07:51:31.160Z,14.87
2018-12-13T07:54:01.299Z,16.50
2018-12-13T07:56:31.909Z,19.85
2018-12-13T07:59:01.375Z,15.15
2018-12-13T08:01:32.620Z,18.10
2018-12-13T08:04:02.108Z,18.80
2018-12-13T08:06:31.687Z,22.75
2018-12-13T08:09:01.197Z,15.50
2018-12-13T08:11:31.689Z,17.87
2018-12-13T08:14:02.614Z,16.12
2018-12-13T08:16:32.171Z,18.23
2018-12-13T08:19:02.083Z,16.32
2018-12-13T08:21:31.431Z,15.98
2018-12-13T08:24:01.711Z,19.07
2018-12-13T08:26:30.951Z,12.73
2018-12-13T08:29:02.458Z,15.23
2018-12-13T08:31:35.113Z,16.15
2018-12-13T08:34:05.079Z,16.67
2018-12-13T08:36:35.175Z,17.05
2018-12-13T08:39:07.847Z,15.60
2018-12-13T08:41:38.305Z,16.10
2018-12-13T08:44:07.562Z,13.60
2018-12-13T08:46:36.852Z,14.80
2018-12-13T08:49:06.102Z,15.13
2018-12-13T08:51:35.414Z,26.62
2018-12-13T08:54:04.663Z,17.70
2018-12-13T08:56:34.158Z,14.28
2018-12-13T08:59:04.491Z,15.15
2018-12-13T09:01:33.943Z,19.82
2018-12-13T09:04:05.146Z,17.00
2018-12-13T09:06:35.330Z,14.43
2018-12-13T09:09:08.253Z,16.02
2018-12-13T09:11:40.011Z,14.25
2018-12-13T09:14:10.192Z,14.65
2018-12-13T09:16:40.964Z,20.72
2018-12-13T09:19:12.559Z,17.85
2018-12-13T09:21:42.058Z,16.85
2018-12-13T09:24:12.000Z,16.52
2018-12-13T09:26:41.662Z,17.32
2018-12-13T09:29:10.881Z,16.82
2018-12-13T09:31:43.445Z,14.45
2018-12-13T09:34:12.681Z,16.35
2018-12-13T09:36:42.053Z,17.40
2018-12-13T09:39:11.286Z,21.73
2018-12-13T09:41:42.872Z,15.85
2018-12-13T09:44:16.850Z,19.67
2018-12-13T09:46:48.059Z,15.25
2018-12-13T09:49:17.278Z,21.07
2018-12-13T09:51:46.477Z,17.82
2018-12-13T09:54:15.665Z,16.85
2018-12-13T09:56:45.249Z,16.37
2018-12-13T09:59:14.468Z,20.77
2018-12-13T10:01:43.712Z,21.15
2018-12-13T10:04:12.941Z,21.25
2018-12-13T10:06:42.180Z,22.87
2018-12-13T10:09:12.858Z,19.65
2018-12-13T10:11:42.248Z,16.00
2018-12-13T10:14:11.493Z,20.60
2018-12-13T10:16:41.693Z,19.23
2018-12-13T10:19:10.877Z,17.90
2018-12-13T10:22:02.347Z,18.25
2018-12-13T10:24:37.781Z,18.98
2018-12-13T10:27:08.607Z,16.60
2018-12-13T10:29:41.823Z,22.50
2018-12-13T10:32:11.868Z,22.30
2018-12-13T10:34:46.490Z,21.20
2018-12-13T10:37:15.709Z,22.17
2018-12-13T10:39:45.018Z,23.15
2018-12-13T10:42:14.169Z,23.12
2018-12-13T10:44:43.377Z,20.37
2018-12-13T10:47:13.814Z,19.92
2018-12-13T10:49:43.721Z,21.30
2018-12-13T10:52:12.983Z,15.85
2018-12-13T10:54:42.263Z,18.95
2018-12-13T10:57:12.202Z,18.00
2018-12-13T10:59:41.429Z,18.23
2018-12-13T11:02:20.114Z,17.30
2018-12-13T11:04:50.306Z,19.92
2018-12-13T11:07:20.253Z,17.73
2018-12-13T11:09:53.800Z,19.30
2018-12-13T11:12:23.434Z,21.97
2018-12-13T11:14:52.803Z,21.42
2018-12-13T11:17:24.635Z,20.90
2018-12-13T11:19:55.156Z,22.32
2018-12-13T11:22:25.363Z,18.80
2018-12-13T11:24:55.404Z,20.92
2018-12-13T11:29:42.290Z,22.15
2018-12-13T11:32:12.956Z,20.32
2018-12-13T11:34:42.689Z,22.35
2018-12-13T11:37:15.536Z,22.27
2018-12-13T11:39:48.860Z,20.37
2018-12-13T11:42:18.118Z,22.22
2018-12-13T11:44:53.302Z,21.75
2018-12-13T11:47:25.783Z,22.25
2018-12-13T11:50:01.992Z,25.10
2018-12-13T11:52:31.558Z,22.27
2018-12-13T11:55:08.839Z,26.55
2018-12-13T11:57:43.233Z,26.37
2018-12-13T12:00:27.004Z,18.40
2018-12-13T12:02:56.846Z,25.27
2018-12-13T12:05:26.135Z,22.25
2018-12-13T12:07:56.829Z,23.83
2018-12-13T12:10:28.686Z,24.30
2018-12-13T12:12:58.434Z,25.08
2018-12-13T12:15:29.512Z,28.85
2018-12-13T12:17:58.762Z,23.83
2018-12-13T12:20:28.525Z,23.42
2018-12-13T12:22:58.734Z,24.30
2018-12-13T12:25:30.662Z,28.12
2018-12-13T12:28:02.461Z,26.15
2018-12-13T12:30:34.306Z,27.30
2018-12-13T12:33:08.854Z,20.08
2018-12-13T12:35:38.039Z,24.15
2018-12-13T12:38:09.182Z,28.98
2018-12-13T12:40:44.321Z,25.10
2018-12-13T12:43:15.827Z,27.17
2018-12-13T12:45:46.075Z,25.68
2018-12-13T12:49:46.706Z,24.35
2018-12-13T12:52:16.908Z,25.25
2018-12-13T12:54:46.475Z,25.88
2018-12-13T12:57:19.061Z,23.57
2018-12-13T12:59:49.315Z,26.50
2018-12-13T13:02:20.719Z,24.65
2018-12-13T13:04:50.268Z,30.37
2018-12-13T13:07:19.993Z,29.37
2018-12-13T13:09:53.683Z,28.52
2018-12-13T13:12:23.518Z,27.13
2018-12-13T13:14:53.545Z,26.87
2018-12-13T13:17:26.050Z,33.35
2018-12-13T13:20:00.545Z,24.65
2018-12-13T13:22:29.909Z,20.17
2018-12-13T13:24:59.340Z,19.57
2018-12-13T13:27:31.261Z,25.57
2018-12-13T13:30:07.974Z,27.98
2018-12-13T13:32:37.446Z,23.32
2018-12-13T13:35:12.191Z,28.98
2018-12-13T13:37:44.406Z,30.82
2018-12-13T13:40:15.989Z,25.68
2018-12-13T13:42:45.963Z,26.82
2018-12-13T13:45:17.201Z,29.50
2018-12-13T13:47:46.518Z,28.55
2018-12-13T13:50:20.135Z,27.20
2018-12-13T13:52:49.408Z,31.70
2018-12-13T13:55:19.227Z,23.00
2018-12-13T13:57:49.366Z,25.30
2018-12-13T14:00:23.260Z,22.87
2018-12-13T14:02:53.427Z,29.40
2018-12-13T14:05:23.298Z,25.10
2018-12-13T14:07:53.459Z,27.15
2018-12-13T14:10:23.277Z,26.40
2018-12-13T14:12:54.012Z,26.23
2018-12-13T14:15:24.275Z,31.97
2018-12-13T14:17:53.495Z,26.57
2018-12-13T14:20:23.027Z,26.60
2018-12-13T14:22:56.285Z,23.15
2018-12-13T14:25:32.077Z,24.82
2018-12-13T14:28:01.931Z,25.17
2018-12-13T14:30:32.249Z,21.87
2018-12-13T14:33:01.529Z,22.13
2018-12-13T14:35:31.927Z,29.80
2018-12-13T14:38:02.285Z,26.60
2018-12-13T14:40:32.666Z,21.80
2018-12-13T14:43:01.817Z,25.40
2018-12-13T14:45:31.103Z,24.23
2018-12-13T14:48:21.691Z,23.98
2018-12-13T14:51:02.677Z,26.00
2018-12-13T14:53:31.896Z,23.30
2018-12-13T14:56:03.103Z,25.10
2018-12-13T14:58:32.392Z,21.85
2018-12-13T15:01:01.705Z,26.23
2018-12-13T15:03:31.600Z,26.55
2018-12-13T15:06:01.546Z,25.20
2018-12-13T15:08:31.814Z,25.60
2018-12-13T15:11:02.056Z,24.10
2018-12-13T15:13:33.710Z,22.55
2018-12-13T15:16:04.034Z,30.75
2018-12-13T15:18:33.706Z,23.67
2018-12-13T15:21:04.730Z,25.00
2018-12-13T15:23:34.591Z,21.65
2018-12-13T15:26:04.566Z,27.70
2018-12-13T15:28:34.785Z,29.18
2018-12-13T15:31:04.890Z,22.42
2018-12-13T15:33:35.053Z,27.40
2018-12-13T15:36:05.975Z,27.70
2018-12-13T15:38:36.595Z,27.02
2018-12-13T15:41:07.377Z,23.80
2018-12-13T15:43:36.608Z,29.10
2018-12-13T15:46:16.463Z,25.75
2018-12-13T15:48:51.764Z,30.35
2018-12-13T15:57:29.417Z,27.05
2018-12-13T16:01:34.342Z,28.05
2018-12-13T16:04:09.857Z,22.58
2018-12-13T16:06:45.390Z,25.32
2018-12-13T16:09:21.383Z,25.02
2018-12-13T16:11:57.656Z,25.70
2018-12-13T16:14:33.058Z,24.70
2018-12-13T16:20:10.272Z,27.37
2018-12-13T16:22:45.806Z,26.80
2018-12-13T16:25:21.277Z,20.97
2018-12-13T16:27:52.409Z,24.67
2018-12-13T16:30:28.866Z,18.27
2018-12-13T16:33:03.902Z,21.52
2018-12-13T16:35:38.685Z,21.00
2018-12-13T16:38:15.618Z,19.12
2018-12-13T16:40:50.816Z,23.18
2018-12-13T16:43:27.517Z,17.15
2018-12-13T16:46:00.207Z,20.08
2018-12-13T16:48:36.095Z,19.50
2018-12-13T16:51:10.107Z,20.23
2018-12-13T16:53:46.117Z,20.25
2018-12-13T16:56:21.270Z,24.18
2018-12-13T16:58:54.137Z,29.80
2018-12-13T17:01:37.127Z,26.60
2018-12-13T17:04:10.891Z,24.77
2018-12-13T17:06:43.948Z,48.73
2018-12-13T17:09:20.094Z,45.43
2018-12-13T17:11:55.048Z,39.00
2018-12-13T17:14:31.406Z,19.30
2018-12-13T17:17:04.620Z,18.90
2018-12-13T17:19:43.154Z,20.68
2018-12-13T17:22:15.822Z,23.57
2018-12-13T17:24:50.549Z,22.45
2018-12-13T17:27:23.361Z,19.30
2018-12-13T17:30:00.630Z,17.12
2018-12-13T17:32:36.743Z,20.50
2018-12-13T17:35:18.364Z,19.07
2018-12-13T17:37:53.853Z,18.87
2018-12-13T17:40:34.989Z,23.70
2018-12-13T17:43:10.208Z,22.90
2018-12-13T17:45:45.577Z,20.48
2018-12-13T17:48:20.368Z,17.82
2018-12-13T17:53:47.710Z,23.05
2018-12-13T17:56:26.549Z,18.52
2018-12-13T17:58:59.743Z,16.23
2018-12-13T18:01:34.911Z,21.33
2018-12-13T18:04:05.511Z,19.42
2018-12-13T18:06:43.294Z,24.82
2018-12-13T18:09:18.757Z,23.42
2018-12-13T18:11:54.091Z,20.97
2018-12-13T18:14:29.869Z,57.78
2018-12-13T18:17:06.127Z,22.80
2018-12-13T18:19:47.676Z,20.02
2018-12-13T18:22:22.755Z,25.00
2018-12-13T18:24:58.279Z,23.05
2018-12-13T18:27:34.114Z,25.10
2018-12-13T18:30:10.447Z,26.02
2018-12-13T18:35:29.141Z,19.85
2018-12-13T18:38:11.662Z,20.00
2018-12-13T18:40:50.545Z,20.85
2018-12-13T18:46:35.327Z,19.37
2018-12-13T18:49:11.378Z,25.48
2018-12-13T18:51:57.392Z,21.93
2018-12-13T18:54:39.290Z,20.55
2018-12-13T18:57:17.955Z,19.75
2018-12-13T19:00:06.441Z,20.05
2018-12-13T19:03:03.236Z,18.87
2018-12-13T19:05:51.786Z,21.42
2018-12-13T19:08:30.306Z,21.12
2018-12-13T19:11:28.628Z,18.23
2018-12-13T19:14:21.039Z,22.40
2018-12-13T19:17:06.926Z,20.72
2018-12-13T19:19:58.820Z,21.12
2018-12-13T19:25:41.739Z,18.20
2018-12-13T19:28:20.084Z,23.15
2018-12-13T19:33:55.749Z,21.00
2018-12-13T19:36:41.539Z,22.40
2018-12-13T19:39:21.801Z,24.57
2018-12-13T19:42:04.063Z,21.50
2018-12-13T19:44:48.848Z,23.95
2018-12-13T19:50:12.039Z,21.00
2018-12-13T19:55:54.530Z,21.40
2018-12-13T19:58:46.541Z,22.42
2018-12-13T20:01:25.084Z,20.95
2018-12-13T20:04:07.665Z,25.70
2018-12-13T20:06:48.603Z,19.15
2018-12-13T20:09:31.582Z,20.90
2018-12-13T20:12:17.357Z,18.70
2018-12-13T20:14:57.042Z,19.17
2018-12-13T20:17:41.673Z,19.98
2018-12-13T20:23:42.931Z,21.15
2018-12-13T20:26:29.082Z,20.80
2018-12-13T20:29:13.561Z,24.85
2018-12-13T20:31:53.536Z,19.12
2018-12-13T20:34:32.144Z,20.55
2018-12-13T20:37:10.633Z,29.00
2018-12-13T20:39:51.739Z,30.80
2018-12-13T20:42:30.222Z,23.12
2018-12-13T20:45:09.561Z,24.45
2018-12-13T20:47:49.201Z,22.98
2018-12-13T20:50:28.192Z,23.32
2018-12-13T20:53:14.856Z,18.85
2018-12-13T20:58:51.969Z,23.30
2018-12-13T21:01:34.323Z,23.52
2018-12-13T21:10:08.391Z,23.77
2018-12-13T21:13:02.723Z,18.92
2018-12-13T21:15:47.151Z,21.93
2018-12-13T21:18:34.278Z,21.15
2018-12-13T21:21:15.820Z,21.23
2018-12-13T21:24:11.065Z,18.12
2018-12-13T21:26:50.385Z,21.68
2018-12-13T21:35:42.574Z,24.00
2018-12-13T21:41:27.487Z,22.85
2018-12-13T21:46:54.699Z,17.75
2018-12-13T21:49:37.275Z,21.05
2018-12-13T21:52:35.014Z,19.45
2018-12-13T21:55:25.341Z,24.02
2018-12-13T21:58:16.025Z,21.40
2018-12-13T22:01:09.565Z,21.25
2018-12-13T22:13:05.694Z,34.40
2018-12-13T22:19:05.677Z,25.37
2018-12-13T22:52:18.216Z,22.22
2018-12-13T22:58:06.399Z,23.65
2018-12-13T23:03:56.010Z,21.35
2018-12-13T23:06:49.568Z,19.67
2018-12-13T23:09:34.132Z,27.45
2018-12-13T23:12:21.523Z,19.98
2018-12-13T23:14:59.942Z,24.05
2018-12-13T23:17:49.360Z,25.57
